Latest Coastal Weather Observations for McCluer Island

IDD60701

Issued at 1:11 pm CST Sunday 25 September 2016 (issued every 10 minutes, with the page automatically refreshed every 10 minutes)

About coastal observations | Map of coastal stations | Coastal observations for NT | Marine services | Other Formats
Station Details ID: 014274 Name: MCCLUER ISLAND Lat: -11.05 Lon: 132.98 Height: 1.4 m
Data from the previous 72 hours. | See also: Recent months at McCluer Island
Date/Time
CST
Temp
°C
Wind Pressure Rain since
9am
mm
Weather Cloud Vis
km
Sea
Height
m
Swell
Dir  Spd
kts
Gust
kts
hPa Trend Height
m
Period
s
Dir
25/01:00pm 30.6 CALM 0 2 1008.4 - 0.0 - - - - - - -
25/12:30pm 30.5 CALM 0 3 1008.9 - 0.0 - - - - - - -
25/12:00pm 29.4 CALM 0 0 1009.5 - 0.0 - - - - - - -
25/11:30am 29.6 CALM 0 2 1009.9 - 0.0 - - - - - - -
25/11:00am 29.0 CALM 0 0 1010.2 - 0.0 - - - - - - -
25/10:30am 28.9 CALM 0 5 1010.3 - 0.0 - - - - - - -
25/10:00am 28.8 CALM 0 0 1010.4 - 0.0 - - - - - - -
25/09:30am 28.9 CALM 0 0 1010.5 - 0.0 - - - - - - -
25/09:00am 29.2 CALM 0 0 1010.4 - 0.0 - - - - - - -
25/08:30am 28.9 CALM 0 3 1010.2 - 0.0 - - - - - - -
25/08:00am 28.4 CALM 0 0 1009.8 - 0.0 - - - - - - -
25/07:30am 27.3 CALM 0 0 1009.5 - 0.0 - - - - - - -
25/07:00am 26.6 CALM 0 0 1009.2 - 0.0 - - - - - - -
25/06:30am 26.2 CALM 0 0 1008.8 - 0.0 - - - - - - -
25/06:00am 26.3 CALM 0 0 1008.7 - 0.0 - - - - - - -
25/05:30am 26.4 CALM 0 0 1008.6 - 0.0 - - - - - - -
25/05:00am 26.1 CALM 0 0 1008.4 - 0.0 - - - - - - -
25/04:30am 26.5 CALM 0 0 1008.2 - 0.0 - - - - - - -
25/04:00am 26.5 CALM 0 4 1008.0 - 0.0 - - - - - - -
25/03:30am 26.6 CALM 0 0 1008.0 - 0.0 - - - - - - -
25/03:00am 26.7 CALM 0 0 1008.2 - 0.0 - - - - - - -
25/02:30am 27.1 CALM 0 0 1008.0 - 0.0 - - - - - - -
25/02:00am 27.0 CALM 0 0 1008.0 - 0.0 - - - - - - -
25/01:30am 27.0 CALM 0 0 1008.2 - 0.0 - - - - - - -
25/01:00am 27.2 N 2 4 1008.3 - 0.0 - - - - - - -
25/12:30am 27.3 N 4 5 1008.5 - 0.0 - - - - - - -
25/12:00am 27.4 N 7 8 1008.7 - 0.0 - - - - - - -
 
Date/Time
CST
Temp
°C
Wind Pressure Rain since
9am
mm
Weather Cloud Vis
km
Sea
Height
m
Swell
Dir  Spd
kts
Gust
kts
hPa Trend Height
m
Period
s
Dir
24/11:30pm 27.6 NNE 10 11 1008.9 - 0.0 - - - - - - -
24/11:00pm 27.7 NNE 11 13 1009.1 - 0.0 - - - - - - -
24/10:30pm 27.6 NNE 10 11 1009.1 - 0.0 - - - - - - -
24/10:00pm 27.7 NE 11 13 1008.9 - 0.0 - - - - - - -
24/09:30pm 27.8 NE 11 13 1008.7 - 0.0 - - - - - - -
24/09:00pm 27.8 NNE 12 14 1008.4 - 0.0 - - - - - - -
24/08:30pm 27.9 NE 11 13 1008.2 - 0.0 - - - - - - -
24/08:00pm 27.9 NE 10 12 1007.9 - 0.0 - - - - - - -
24/07:30pm 27.8 ENE 10 11 1007.7 - 0.0 - - - - - - -
24/07:00pm 27.9 E 8 10 1007.3 - 0.0 - - - - - - -
24/06:30pm 28.2 E 8 9 1007.1 - 0.0 - - - - - - -
24/06:00pm 28.3 E 8 10 1007.0 - 0.0 - - - - - - -
24/05:30pm 28.6 E 8 10 1006.6 - 0.0 - - - - - - -
24/05:00pm 29.1 E 7 10 1006.4 - 0.0 - - - - - - -
24/04:30pm 29.1 E 6 8 1006.5 - 0.0 - - - - - - -
24/04:00pm 29.5 E 5 8 1006.6 - 0.0 - - - - - - -
24/03:30pm 29.0 E 8 9 1006.8 - 0.0 - - - - - - -
24/03:00pm 29.2 E 7 9 1007.0 - 0.0 - - - - - - -
24/02:30pm 29.5 E 6 8 1007.4 - 0.0 - - - - - - -
24/02:00pm 29.5 E 5 7 1008.0 - 0.0 - - - - - - -
24/01:30pm 29.3 ENE 5 6 1008.5 - 0.0 - - - - - - -
24/01:00pm 29.7 E 5 7 1009.1 - 0.0 - - - - - - -
24/12:30pm 30.1 E 5 7 1009.5 - 0.0 - - - - - - -
24/12:00pm 29.9 E 5 6 1010.0 - 0.0 - - - - - - -
24/11:30am 29.3 E 6 7 1010.3 - 0.0 - - - - - - -
24/11:00am 29.5 E 6 7 1010.7 - 0.0 - - - - - - -
24/10:30am 29.2 E 6 7 1010.9 - 0.0 - - - - - - -
24/10:00am 29.5 E 8 9 1011.2 - 0.0 - - - - - - -
24/09:30am 29.4 E 9 10 1011.3 - 0.0 - - - - - - -
24/09:00am 28.9 E 8 10 1011.3 - 0.0 - - - - - - -
24/08:30am 28.6 E 10 11 1010.9 - 0.0 - - - - - - -
24/08:00am 28.5 E 10 12 1010.8 - 0.0 - - - - - - -
24/07:30am 28.2 E 11 13 1010.4 - 0.0 - - - - - - -
24/07:00am 27.9 E 11 12 1010.1 - 0.0 - - - - - - -
24/06:30am 27.5 E 11 13 1009.7 - 0.0 - - - - - - -
24/06:00am 27.4 E 10 12 1009.6 - 0.0 - - - - - - -
24/05:30am 27.7 E 10 11 1009.2 - 0.0 - - - - - - -
24/05:00am 27.6 E 9 11 1009.0 - 0.0 - - - - - - -
24/04:30am 27.5 E 10 12 1008.7 - 0.0 - - - - - - -
24/04:00am 27.5 ENE 10 12 1008.4 - 0.0 - - - - - - -
24/03:30am 27.7 ENE 11 13 1008.5 - 0.0 - - - - - - -
24/03:00am 27.7 ENE 11 13 1008.7 - 0.0 - - - - - - -
24/02:30am 27.8 ENE 12 14 1008.8 - 0.0 - - - - - - -
24/02:00am 28.0 NE 12 14 1009.2 - 0.0 - - - - - - -
24/01:30am 27.7 NE 12 14 1009.2 - 0.0 - - - - - - -
24/01:00am 27.6 NE 12 14 1009.3 - 0.0 - - - - - - -
24/12:30am 27.8 NE 12 14 1009.6 - 0.0 - - - - - - -
24/12:00am 27.9 NE 12 14 1009.8 - 0.0 - - - - - - -
 
Date/Time
CST
Temp
°C
Wind Pressure Rain since
9am
mm
Weather Cloud Vis
km
Sea
Height
m
Swell
Dir  Spd
kts
Gust
kts
hPa Trend Height
m
Period
s
Dir
23/11:30pm 27.8 NE 12 14 1009.6 - 0.0 - - - - - - -
23/11:00pm 27.9 NNE 14 16 1009.7 - 0.0 - - - - - - -
23/10:30pm 28.1 NNE 15 17 1009.6 - 0.0 - - - - - - -
23/10:00pm 28.1 NNE 15 17 1009.2 - 0.0 - - - - - - -
23/09:30pm 27.9 NNE 15 19 1009.1 - 0.0 - - - - - - -
23/09:00pm 28.0 NE 13 15 1009.0 - 0.0 - - - - - - -
23/08:30pm 27.9 NE 15 18 1008.7 - 0.0 - - - - - - -
23/08:00pm 28.3 NE 14 17 1008.3 - 0.0 - - - - - - -
23/07:30pm 27.9 ENE 15 17 1008.0 - 0.0 - - - - - - -
23/07:00pm 27.9 ENE 14 16 1007.9 - 0.0 - - - - - - -
23/06:30pm 28.1 ENE 14 16 1007.9 - 0.0 - - - - - - -
23/06:00pm 28.4 ENE 13 16 1007.7 - 0.0 - - - - - - -
23/05:30pm 28.4 E 12 13 1007.5 - 0.0 - - - - - - -
23/05:00pm 28.6 E 12 14 1007.2 - 0.0 - - - - - - -
23/04:30pm 29.2 E 11 13 1007.1 - 0.0 - - - - - - -
23/04:00pm 29.1 E 9 12 1007.3 - 0.0 - - - - - - -
23/03:30pm 29.2 E 11 14 1007.4 - 0.0 - - - - - - -
23/03:00pm 29.5 E 10 13 1007.8 - 0.0 - - - - - - -
23/02:30pm 29.5 E 11 13 1008.0 - 0.0 - - - - - - -
23/02:00pm 29.8 E 11 13 1008.4 - 0.0 - - - - - - -
23/01:30pm 29.9 E 11 13 1009.0 - 0.0 - - - - - - -
23/01:00pm 29.8 E 11 12 1009.4 - 0.0 - - - - - - -
23/12:30pm 30.0 E 10 12 1009.9 - 0.0 - - - - - - -
23/12:00pm 29.5 E 10 11 1010.4 - 0.0 - - - - - - -
23/11:30am 29.3 E 9 11 1010.8 - 0.0 - - - - - - -
23/11:00am 29.1 E 11 12 1011.3 - 0.0 - - - - - - -
23/10:30am 29.5 E 12 14 1011.7 - 0.0 - - - - - - -
23/10:00am 28.5 E 13 15 1012.0 - 0.0 - - - - - - -
23/09:30am 28.5 E 14 16 1012.0 - 0.0 - - - - - - -
23/09:00am 28.3 E 14 16 1012.0 - 0.6 - - - - - - -
23/08:30am 27.7 E 12 14 1011.8 - 0.6 - - - - - - -
23/08:00am 27.0 E 10 12 1011.6 - 0.6 - - - - - - -
23/07:30am 26.5 ENE 12 16 1011.3 - 0.6 - - - - - - -
23/07:00am 26.9 E 18 22 1011.0 - 0.6 - - - - - - -
23/06:30am 25.1 ESE 16 19 1010.8 - 0.6 - - - - - - -
23/06:10am 26.2 ESE 26 28 1010.6 - 0.0 - - - - - - -
23/06:05am 27.6 E 15 27 1010.5 - 0.0 - - - - - - -
23/06:00am 27.9 E 14 17 1010.4 - 0.0 - - - - - - -
23/05:30am 27.7 ENE 14 15 1009.9 - 0.0 - - - - - - -
23/05:00am 27.7 E 14 16 1009.9 - 0.0 - - - - - - -
23/04:30am 27.6 E 13 15 1009.6 - 0.0 - - - - - - -
23/04:00am 27.7 E 13 16 1009.5 - 0.0 - - - - - - -
23/03:30am 27.8 E 13 16 1009.5 - 0.0 - - - - - - -
23/03:00am 27.8 E 13 14 1009.6 - 0.0 - - - - - - -
23/02:30am 27.8 E 11 14 1009.6 - 0.0 - - - - - - -
23/02:00am 27.8 E 10 12 1009.8 - 0.0 - - - - - - -
23/01:30am 27.7 ENE 11 13 1009.9 - 0.0 - - - - - - -
23/01:00am 28.1 ENE 12 14 1010.2 - 0.0 - - - - - - -
23/12:30am 28.0 ENE 12 13 1010.6 - 0.0 - - - - - - -
23/12:00am 28.1 ENE 12 15 1010.7 - 0.0 - - - - - - -
 
Date/Time
CST
Temp
°C
Wind Pressure Rain since
9am
mm
Weather Cloud Vis
km
Sea
Height
m
Swell
Dir  Spd
kts
Gust
kts
hPa Trend Height
m
Period
s
Dir
22/11:30pm 28.2 ENE 12 14 1010.7 - 0.0 - - - - - - -
22/11:00pm 28.1 ENE 13 14 1010.8 - 0.0 - - - - - - -
22/10:30pm 27.7 ENE 13 15 1010.8 - 0.0 - - - - - - -
22/10:00pm 28.0 ENE 12 14 1010.7 - 0.0 - - - - - - -
22/09:30pm 27.8 E 12 14 1010.6 - 0.0 - - - - - - -
22/09:00pm 27.9 E 12 13 1010.7 - 0.0 - - - - - - -
22/08:30pm 27.9 E 11 13 1010.6 - 0.0 - - - - - - -
22/08:00pm 27.9 E 11 13 1010.6 - 0.0 - - - - - - -
22/07:30pm 27.9 E 11 13 1010.3 - 0.0 - - - - - - -
22/07:00pm 28.0 E 12 14 1010.0 - 0.0 - - - - - - -
22/06:30pm 28.0 E 13 14 1009.7 - 0.0 - - - - - - -
22/06:00pm 28.2 E 13 15 1009.4 - 0.0 - - - - - - -
22/05:30pm 28.3 E 14 16 1009.5 - 0.0 - - - - - - -
22/05:00pm 28.4 E 12 14 1009.3 - 0.0 - - - - - - -
22/04:30pm 29.1 E 14 17 1009.4 - 0.0 - - - - - - -
22/04:00pm 29.1 E 13 16 1009.5 - 0.0 - - - - - - -
22/03:30pm 28.7 E 14 17 1009.5 - 0.0 - - - - - - -
22/03:00pm 29.2 ESE 15 17 1009.7 - 0.0 - - - - - - -
22/02:30pm 29.1 ESE 14 17 1009.9 - 0.0 - - - - - - -
22/02:00pm 30.0 ESE 13 15 1010.2 - 0.0 - - - - - - -
22/01:30pm 30.2 E 12 14 1010.5 - 0.0 - - - - - - -

Other Formats:

Comma delimited format used in spreadsheet applications
http://www.bom.gov.au/fwo/IDD60701/IDD60701.94135.axf

JavaScript Object Notation format (JSON) in row-major order
http://www.bom.gov.au/fwo/IDD60701/IDD60701.94135.json